Time;durP1;ratioP1;P1;durP2;ratioP2;P2;SDS_P1;SDS_P2;PMS_P1;PMS_P2;Temp;Humidity;BMP_temperature;BMP_pressure;BME280_temperature;BME280_humidity;BME280_pressure;Samples;Min_cycle;Max_cycle;Signal;HPM_P1;HPM_P2
2022/05/24 00:02:00;;;;;;;11.85;7.97;;;;;;;13.15;100.00;99859.09;4857759;29;20045;-82
2022/05/24 00:04:28;;;;;;;8.88;6.53;;;;;;;13.14;100.00;99852.09;4865747;29;20699;-82
2022/05/24 00:06:58;;;;;;;9.98;6.93;;;;;;;13.11;100.00;99852.16;4864935;29;20064;-83
2022/05/24 00:09:26;;;;;;;8.55;5.80;;;;;;;13.04;100.00;99867.31;4874886;29;20270;-83
2022/05/24 00:11:55;;;;;;;11.65;6.57;;;;;;;13.04;100.00;99871.69;4859666;29;20053;-83
2022/05/24 00:17:11;;;;;;;8.75;7.00;;;;;;;13.02;100.00;99868.22;4854240;29;20065;-83
2022/05/24 00:19:40;;;;;;;13.32;6.97;;;;;;;12.99;100.00;99868.31;4832504;29;20390;-84
2022/05/24 00:22:09;;;;;;;14.00;7.53;;;;;;;12.96;100.00;99871.88;4823561;29;20041;-83
2022/05/24 00:24:37;;;;;;;9.25;7.07;;;;;;;12.94;100.00;99872.81;4867127;29;20076;-83
2022/05/24 00:27:06;;;;;;;10.85;7.65;;;;;;;12.95;100.00;99874.53;4858249;29;20048;-83
2022/05/24 00:29:34;;;;;;;13.93;8.45;;;;;;;12.90;100.00;99881.72;4815718;29;20384;-84
2022/05/24 00:32:03;;;;;;;11.52;8.80;;;;;;;12.91;100.00;99878.16;4871534;29;20049;-85
2022/05/24 00:34:31;;;;;;;13.73;8.88;;;;;;;12.89;100.00;99899.34;4859961;29;20498;-83
2022/05/24 00:37:00;;;;;;;15.25;9.38;;;;;;;12.90;100.00;99889.66;4848405;29;20052;-84
2022/05/24 00:39:28;;;;;;;11.40;10.00;;;;;;;12.90;100.00;99895.81;4857544;29;20344;-84
2022/05/24 00:42:16;;;;;;;14.73;9.77;;;;;;;12.87;100.00;99894.13;4842176;29;20053;-83
2022/05/24 00:45:03;;;;;;;12.98;8.98;;;;;;;12.90;100.00;99890.53;4846796;29;20132;-84
2022/05/24 00:47:51;;;;;;;11.35;10.07;;;;;;;12.92;100.00;99895.78;4872301;29;20033;-83
2022/05/24 00:50:30;;;;;;;11.98;9.23;;;;;;;12.94;100.00;99893.97;4888827;29;20364;-85
2022/05/24 00:53:06;;;;;;;11.82;9.15;;;;;;;12.93;100.00;99898.41;4874908;29;20406;-85
2022/05/24 00:56:09;;;;;;;10.20;8.75;;;;;;;12.91;100.00;99891.38;4871909;29;20045;-83
2022/05/24 00:59:00;;;;;;;14.27;9.57;;;;;;;12.87;100.00;99893.22;4861158;29;20056;-83
2022/05/24 01:01:34;;;;;;;15.07;9.52;;;;;;;12.85;100.00;99901.22;4855964;29;20064;-84
2022/05/24 01:04:04;;;;;;;11.68;9.70;;;;;;;12.83;100.00;99918.00;4858794;29;20053;-83
2022/05/24 01:06:34;;;;;;;11.38;9.18;;;;;;;12.84;100.00;99909.19;4862500;29;20073;-83
2022/05/24 01:09:07;;;;;;;13.05;9.38;;;;;;;12.82;100.00;99916.28;4854539;29;20049;-83
2022/05/24 01:11:41;;;;;;;14.02;9.45;;;;;;;12.83;100.00;99910.06;4842989;29;20053;-84
2022/05/24 01:14:14;;;;;;;14.35;8.13;;;;;;;12.86;100.00;99896.78;4865340;29;20549;-82
2022/05/24 01:16:43;;;;;;;11.05;8.20;;;;;;;12.83;100.00;99896.84;4868036;29;20054;-84
2022/05/24 01:19:36;;;;;;;8.63;7.43;;;;;;;12.80;100.00;99903.06;4855583;29;20543;-83
2022/05/24 01:22:41;;;;;;;8.88;7.57;;;;;;;12.78;100.00;99906.63;4871298;29;20057;-82
2022/05/24 01:25:25;;;;;;;13.05;8.70;;;;;;;12.77;100.00;99911.06;4848304;29;20072;-83
2022/05/24 01:27:54;;;;;;;11.57;8.13;;;;;;;12.75;100.00;99915.50;4857919;29;20400;-83
2022/05/24 01:30:23;;;;;;;12.95;7.63;;;;;;;12.74;100.00;99912.91;4813582;29;20630;-82
2022/05/24 01:38:26;;;;;;;8.55;5.07;;;;;;;12.66;100.00;99907.75;4870021;29;20157;-85
2022/05/24 01:40:55;;;;;;;9.32;6.25;;;;;;;12.64;100.00;99906.94;4857902;29;20045;-83
2022/05/24 01:43:26;;;;;;;10.05;5.85;;;;;;;12.61;100.00;99910.53;4852121;29;20057;-84
2022/05/24 01:46:00;;;;;;;7.90;5.38;;;;;;;12.60;100.00;99910.53;4854072;29;20045;-84
2022/05/24 01:48:37;;;;;;;6.72;5.35;;;;;;;12.56;100.00;99904.44;4875782;29;20535;-82
2022/05/24 01:51:10;;;;;;;6.32;5.38;;;;;;;12.56;100.00;99904.44;4855498;29;20411;-85
2022/05/24 01:53:44;;;;;;;9.27;5.63;;;;;;;12.52;100.00;99905.41;4858834;29;20057;-84
2022/05/24 01:56:42;;;;;;;7.45;5.78;;;;;;;12.45;100.00;99911.72;4841962;29;20072;-84
2022/05/24 01:59:13;;;;;;;8.43;5.25;;;;;;;12.40;100.00;99897.72;4871196;29;20045;-85
2022/05/24 02:01:57;;;;;;;7.93;5.40;;;;;;;12.32;100.00;99895.22;4860206;29;20049;-83
2022/05/24 02:04:30;;;;;;;7.03;5.90;;;;;;;12.28;100.00;99896.19;4881408;29;20354;-84
2022/05/24 02:07:14;;;;;;;9.65;6.38;;;;;;;12.23;100.00;99890.09;4841955;29;20053;-84
2022/05/24 02:09:46;;;;;;;8.35;5.93;;;;;;;12.21;100.00;99890.16;4873840;29;20053;-83
2022/05/24 02:12:27;;;;;;;12.45;6.93;;;;;;;12.19;100.00;99891.06;4865661;29;20064;-84
2022/05/24 02:15:04;;;;;;;7.38;5.93;;;;;;;12.17;100.00;99892.88;4876886;29;20052;-83
2022/05/24 02:17:40;;;;;;;7.07;6.35;;;;;;;12.14;100.00;99891.16;4859201;29;20060;-83
2022/05/24 02:20:11;;;;;;;8.65;6.40;;;;;;;12.11;100.00;99895.63;4872701;29;20049;-84
2022/05/24 02:22:41;;;;;;;8.60;6.80;;;;;;;12.10;100.00;99894.78;4875358;29;20049;-82
2022/05/24 02:25:13;;;;;;;;;;;;;;;12.09;100.00;99914.13;4871160;29;20056;-83
2022/05/24 02:27:44;;;;;;;10.50;6.82;;;;;;;12.08;100.00;99913.28;4873577;29;19923;-85
2022/05/24 02:30:20;;;;;;;8.00;7.18;;;;;;;12.09;100.00;99909.72;4840153;29;20061;-83
2022/05/24 02:32:50;;;;;;;9.90;7.22;;;;;;;12.09;100.00;99908.84;4858141;29;20415;-83
2022/05/24 02:35:18;;;;;;;9.38;6.50;;;;;;;12.07;100.00;99905.38;4842894;29;20466;-83
2022/05/24 02:37:47;;;;;;;8.88;8.05;;;;;;;12.07;100.00;99908.88;4859854;29;20049;-84
2022/05/24 02:43:03;;;;;;;11.27;7.65;;;;;;;12.05;100.00;99917.75;4856563;29;20056;-84
2022/05/24 02:45:32;;;;;;;10.90;8.32;;;;;;;12.06;100.00;99925.63;4828617;29;20050;-84
2022/05/24 02:48:00;;;;;;;12.40;8.68;;;;;;;12.07;100.00;99924.72;4850563;29;20495;-83
2022/05/24 02:50:30;;;;;;;13.95;9.15;;;;;;;12.09;100.00;99930.00;4838717;29;20629;-84
2022/05/24 02:52:59;;;;;;;14.87;9.30;;;;;;;12.13;100.00;99914.97;4873705;29;20052;-83
2022/05/24 02:55:30;;;;;;;9.75;8.15;;;;;;;12.15;100.00;99923.72;4857854;29;20276;-83
2022/05/24 02:57:59;;;;;;;12.25;9.65;;;;;;;12.14;100.00;99928.16;4867782;29;20049;-85
2022/05/24 03:00:27;;;;;;;13.73;9.43;;;;;;;12.16;100.00;99917.56;4849137;29;20348;-85
2022/05/24 03:02:57;;;;;;;12.80;9.30;;;;;;;12.19;100.00;99909.56;4845197;29;20064;-85
2022/05/24 03:05:27;;;;;;;14.82;10.35;;;;;;;12.19;100.00;99909.56;4860944;29;20056;-82
2022/05/24 03:10:42;;;;;;;13.80;9.88;;;;;;;12.22;100.00;99909.50;4877606;29;20495;-83
2022/05/24 03:15:58;;;;;;;16.63;10.30;;;;;;;12.30;100.00;99918.16;4875386;29;20427;-84
2022/05/24 03:18:26;;;;;;;12.82;9.80;;;;;;;12.33;100.00;99912.81;4853606;29;20060;-84
2022/05/24 03:20:55;;;;;;;12.77;9.43;;;;;;;12.37;100.00;99913.66;4836380;29;20144;-86
2022/05/24 03:23:23;;;;;;;15.65;10.77;;;;;;;12.42;100.00;99919.69;4820788;29;20084;-83
2022/05/24 03:25:51;;;;;;;15.98;9.98;;;;;;;12.46;100.00;99918.75;4860283;29;20050;-84
2022/05/24 03:28:20;;;;;;;16.85;9.25;;;;;;;12.48;100.00;99915.16;4832942;29;20146;-83
2022/05/24 03:30:55;;;;;;;13.13;9.75;;;;;;;12.51;100.00;99916.88;4843057;29;20049;-84
2022/05/24 03:33:25;;;;;;;13.48;9.73;;;;;;;12.51;100.00;99927.44;4841745;29;20050;-84
2022/05/24 03:35:53;;;;;;;13.50;10.65;;;;;;;12.54;100.00;99921.25;4819438;29;20056;-84
2022/05/24 03:38:22;;;;;;;12.48;9.07;;;;;;;12.56;100.00;99936.16;4854150;29;20749;-84
2022/05/24 03:40:50;;;;;;;13.68;9.57;;;;;;;12.59;100.00;99936.13;4827618;29;20068;-84
2022/05/24 03:43:19;;;;;;;14.07;9.48;;;;;;;12.60;100.00;99932.53;4842205;29;20260;-84
2022/05/24 03:45:47;;;;;;;10.65;8.95;;;;;;;12.61;100.00;99931.66;4857332;29;20052;-84
2022/05/24 03:48:17;;;;;;;15.43;10.57;;;;;;;12.63;100.00;99924.56;4853257;29;20180;-83
2022/05/24 03:50:46;;;;;;;18.58;12.13;;;;;;;12.65;100.00;99929.84;4857400;29;20037;-84
2022/05/24 03:53:15;;;;;;;13.90;10.95;;;;;;;12.68;100.00;99937.69;4837801;29;20054;-84
2022/05/24 03:55:44;;;;;;;15.77;11.95;;;;;;;12.72;100.00;99928.81;4846706;29;20503;-84
2022/05/24 03:58:14;;;;;;;20.27;14.68;;;;;;;12.75;100.00;99931.38;4857764;29;20168;-83
2022/05/24 04:00:44;;;;;;;20.42;13.50;;;;;;;12.78;100.00;99936.63;4878087;29;20049;-84
2022/05/24 04:03:13;;;;;;;19.50;13.67;;;;;;;12.80;100.00;99933.94;4872941;29;20052;-84
2022/05/24 04:05:47;;;;;;;21.73;16.13;;;;;;;12.82;100.00;99930.34;4847364;29;20057;-84
2022/05/24 04:08:17;;;;;;;21.90;15.85;;;;;;;12.85;100.00;99929.41;4859683;29;20156;-84
2022/05/24 04:10:46;;;;;;;21.33;17.65;;;;;;;12.84;100.00;99933.84;4847222;29;20430;-84
2022/05/24 04:13:14;;;;;;;25.45;19.02;;;;;;;12.87;100.00;99940.81;4857869;29;20701;-85
2022/05/24 04:15:43;;;;;;;30.98;19.88;;;;;;;12.90;100.00;99939.91;4830411;29;20060;-84
2022/05/24 04:18:11;;;;;;;31.13;20.17;;;;;;;12.91;100.00;99937.22;4844301;29;20049;-84
2022/05/24 04:20:40;;;;;;;24.58;17.83;;;;;;;12.92;100.00;99944.25;4865382;29;20049;-83
2022/05/24 04:23:13;;;;;;;30.20;21.60;;;;;;;12.95;100.00;99949.47;4849537;29;20037;-84
2022/05/24 04:25:41;;;;;;;30.02;21.63;;;;;;;12.95;100.00;99954.78;4861324;29;20071;-83
2022/05/24 04:28:10;;;;;;;27.98;22.60;;;;;;;12.97;100.00;99952.09;4857011;29;20045;-85
2022/05/24 04:30:39;;;;;;;35.83;24.55;;;;;;;12.98;100.00;99949.41;4859264;29;20050;-83
2022/05/24 04:33:07;;;;;;;30.40;23.20;;;;;;;13.00;100.00;99958.16;4869466;29;20057;-85
2022/05/24 04:35:36;;;;;;;38.83;26.08;;;;;;;13.02;100.00;99963.44;4842620;29;20041;-83
2022/05/24 04:38:04;;;;;;;34.05;24.60;;;;;;;13.05;100.00;99966.03;4829459;29;20562;-84
2022/05/24 04:43:22;;;;;;;34.15;26.60;;;;;;;13.09;100.00;99975.63;4866563;29;20574;-84
2022/05/24 04:45:53;;;;;;;34.72;25.98;;;;;;;13.10;100.00;99969.44;4873055;29;20060;-84
2022/05/24 04:48:26;;;;;;;32.33;24.25;;;;;;;13.12;100.00;99965.00;4885922;29;20049;-84
2022/05/24 04:50:56;;;;;;;43.50;28.17;;;;;;;13.13;100.00;99958.78;4876717;29;20045;-84
2022/05/24 04:53:26;;;;;;;40.97;27.33;;;;;;;13.16;100.00;99966.66;4860087;29;20686;-84
2022/05/24 04:55:55;;;;;;;38.08;26.45;;;;;;;13.19;100.00;99966.59;4875198;29;20049;-84
2022/05/24 04:58:24;;;;;;;38.78;25.90;;;;;;;13.22;100.00;99965.66;4872864;29;20053;-84
2022/05/24 05:00:52;;;;;;;36.00;27.25;;;;;;;13.24;100.00;99975.28;4857862;29;20042;-85
2022/05/24 05:03:22;;;;;;;36.63;28.23;;;;;;;13.27;100.00;99975.25;4827032;29;20060;-84
2022/05/24 05:05:52;;;;;;;35.08;26.65;;;;;;;13.31;100.00;99969.91;4872759;29;20057;-84
2022/05/24 05:08:20;;;;;;;36.35;27.90;;;;;;;13.35;100.00;99979.53;4827952;29;20061;-83
2022/05/24 05:10:50;;;;;;;31.80;24.30;;;;;;;13.37;100.00;99970.66;4861419;29;20057;-84
2022/05/24 05:13:18;;;;;;;29.20;23.92;;;;;;;13.40;100.00;99969.69;4858627;29;20062;-84
2022/05/24 05:15:47;;;;;;;22.65;20.13;;;;;;;13.38;100.00;99968.88;4846195;29;20041;-84
2022/05/24 05:18:16;;;;;;;25.52;19.70;;;;;;;13.39;100.00;99974.13;4841789;29;20053;-84
2022/05/24 05:20:44;;;;;;;25.85;18.60;;;;;;;13.40;100.00;99981.19;4875909;29;20052;-84
2022/05/24 05:23:14;;;;;;;26.92;17.95;;;;;;;13.43;100.00;99977.56;4836459;29;20172;-84
2022/05/24 05:25:48;;;;;;;26.70;18.40;;;;;;;13.41;100.00;99982.91;4877616;29;20052;-84
2022/05/24 05:28:19;;;;;;;24.42;18.92;;;;;;;13.44;100.00;99989.91;4874149;29;20446;-84
2022/05/24 05:33:36;;;;;;;25.17;17.42;;;;;;;13.47;100.00;100000.41;4859237;29;19931;-85
2022/05/24 05:36:04;;;;;;;24.83;18.48;;;;;;;13.48;100.00;100002.19;4857501;29;20037;-85
2022/05/24 05:38:33;;;;;;;23.98;17.95;;;;;;;13.48;100.00;100014.50;4848575;29;20052;-85
2022/05/24 05:41:01;;;;;;;22.30;17.70;;;;;;;13.47;100.00;100007.50;4870093;29;20041;-83
2022/05/24 05:43:30;;;;;;;20.70;17.48;;;;;;;13.49;100.00;100009.19;4856732;29;20061;-85
2022/05/24 05:46:06;;;;;;;21.10;16.38;;;;;;;13.50;100.00;100020.69;4860119;29;20045;-84
2022/05/24 05:48:36;;;;;;;19.67;15.13;;;;;;;13.50;100.00;100013.59;4855096;29;20196;-83
2022/05/24 05:51:06;;;;;;;19.42;14.00;;;;;;;13.52;100.00;100027.66;4874244;29;20052;-86
2022/05/24 05:53:38;;;;;;;16.80;14.55;;;;;;;13.53;100.00;100039.97;4877278;29;20049;-85
2022/05/24 05:56:22;;;;;;;15.90;13.80;;;;;;;13.54;100.00;100039.09;4821501;29;20029;-85
2022/05/24 05:58:50;;;;;;;20.00;14.48;;;;;;;13.55;100.00;100045.25;4859716;29;20048;-86
2022/05/24 06:01:28;;;;;;;18.20;12.73;;;;;;;13.54;100.00;100044.38;4842672;29;20065;-83
2022/05/24 06:04:00;;;;;;;15.60;12.63;;;;;;;13.55;100.00;100035.50;4846564;29;20414;-85
2022/05/24 06:06:39;;;;;;;17.38;13.23;;;;;;;13.57;100.00;100043.44;4877852;29;20256;-84
2022/05/24 06:09:08;;;;;;;19.80;13.32;;;;;;;13.57;100.00;100039.03;4857858;29;20033;-85
2022/05/24 06:11:36;;;;;;;16.65;12.95;;;;;;;13.60;100.00;100038.09;4890624;29;20398;-85
2022/05/24 06:14:05;;;;;;;18.65;13.65;;;;;;;13.63;100.00;100022.13;4861044;29;20056;-85
2022/05/24 06:16:34;;;;;;;15.85;12.40;;;;;;;13.63;100.00;100025.66;4849020;29;20049;-85
2022/05/24 06:19:04;;;;;;;16.10;12.93;;;;;;;13.64;100.00;100027.38;4866335;29;20037;-85
2022/05/24 06:21:33;;;;;;;19.65;13.25;;;;;;;13.63;100.00;100036.25;4853324;29;20075;-85
2022/05/24 06:24:08;;;;;;;21.48;14.20;;;;;;;13.62;100.00;100041.56;4857681;29;20052;-84
2022/05/24 06:26:41;;;;;;;21.95;14.13;;;;;;;13.61;100.00;100029.22;4850054;29;20044;-84
2022/05/24 06:29:09;;;;;;;16.70;12.50;;;;;;;13.58;100.00;100040.75;4827351;29;20029;-84
2022/05/24 06:31:38;;;;;;;16.65;13.00;;;;;;;13.56;100.00;100039.91;4828242;29;20135;-85
2022/05/24 06:34:07;;;;;;;21.58;14.20;;;;;;;13.53;100.00;100031.19;4838323;29;20064;-86
2022/05/24 06:36:35;;;;;;;20.20;15.52;;;;;;;13.51;100.00;100027.69;4860847;29;20024;-84
2022/05/24 06:39:04;;;;;;;21.20;16.02;;;;;;;13.50;100.00;100026.81;4863155;29;20410;-85
2022/05/24 06:41:32;;;;;;;21.17;15.38;;;;;;;13.51;100.00;100044.44;4815059;29;20056;-85
2022/05/24 06:44:01;;;;;;;18.25;15.98;;;;;;;13.50;100.00;100047.13;4850078;29;20065;-85
2022/05/24 06:46:31;;;;;;;24.48;17.70;;;;;;;13.48;100.00;100062.16;4838711;29;20364;-86
2022/05/24 06:48:59;;;;;;;23.58;16.48;;;;;;;13.46;100.00;100054.28;4876068;29;20271;-84
2022/05/24 06:51:28;;;;;;;23.73;17.73;;;;;;;13.47;100.00;100060.44;4856691;29;20057;-85
2022/05/24 06:53:56;;;;;;;20.38;15.73;;;;;;;13.46;100.00;100067.50;4877716;29;20351;-85
2022/05/24 06:56:24;;;;;;;22.15;17.60;;;;;;;13.47;100.00;100074.53;4852790;29;20060;-84
2022/05/24 07:02:24;;;;;;;24.58;16.70;;;;;;;13.45;100.00;100079.84;4846979;29;20422;-85
2022/05/24 07:04:29;;;;;;;22.38;17.33;;;;;;;13.37;100.00;100096.81;4850539;29;20037;-86
2022/05/24 07:06:58;;;;;;;19.73;13.02;;;;;;;13.35;100.00;100102.13;4859253;29;20033;-85
2022/05/24 07:09:31;;;;;;;19.38;14.00;;;;;;;13.33;100.00;100089.84;4844678;29;20052;-84
2022/05/24 07:12:00;;;;;;;18.75;13.38;;;;;;;13.30;100.00;100093.41;4856379;29;20499;-85
2022/05/24 07:14:29;;;;;;;15.88;13.63;;;;;;;13.29;100.00;100098.69;4822764;29;20049;-86
2022/05/24 07:16:57;;;;;;;19.55;12.15;;;;;;;13.26;100.00;100092.53;4864015;29;20049;-85
2022/05/24 07:19:29;;;;;;;19.00;12.38;;;;;;;13.26;100.00;100084.59;4859904;29;20056;-85
2022/05/24 07:21:57;;;;;;;18.73;14.05;;;;;;;13.26;100.00;100087.25;4851368;29;20041;-84
2022/05/24 07:24:27;;;;;;;17.80;12.68;;;;;;;13.29;100.00;100093.38;4860516;29;20052;-85
2022/05/24 07:26:56;;;;;;;18.30;14.35;;;;;;;13.30;100.00;100096.03;4861519;29;20056;-84
2022/05/24 07:29:25;;;;;;;17.35;14.23;;;;;;;13.32;100.00;100101.31;4854497;29;20400;-85
2022/05/24 07:31:54;;;;;;;20.13;14.65;;;;;;;13.31;100.00;100111.03;4853936;29;20068;-85
2022/05/24 07:34:23;;;;;;;19.85;14.43;;;;;;;13.31;100.00;100116.31;4843778;29;20117;-85
2022/05/24 07:36:51;;;;;;;20.33;14.70;;;;;;;13.30;100.00;100121.59;4857182;29;20507;-85
2022/05/24 07:39:20;;;;;;;21.73;14.73;;;;;;;13.27;100.00;100126.06;4876447;29;20080;-84
2022/05/24 07:47:42;;;;;;;22.25;14.13;;;;;;;13.29;100.00;100138.38;4867813;29;20259;-85
2022/05/24 07:50:11;;;;;;;27.13;13.15;;;;;;;13.32;100.00;100130.41;4859516;29;20411;-85
2022/05/24 07:52:40;;;;;;;20.67;11.45;;;;;;;13.36;100.00;100132.97;4877883;29;20049;-84
2022/05/24 07:55:08;;;;;;;14.93;10.40;;;;;;;13.37;100.00;100134.72;4864528;29;20399;-85
2022/05/24 07:57:39;;;;;;;13.85;10.75;;;;;;;13.40;100.00;100137.31;4848397;29;20817;-84
2022/05/24 08:00:08;;;;;;;15.80;12.07;;;;;;;13.45;100.00;100140.72;4877739;29;20045;-85
2022/05/24 08:02:39;;;;;;;16.88;11.18;;;;;;;13.49;100.00;100141.53;4840761;29;20063;-85
2022/05/24 08:05:10;;;;;;;21.05;12.25;;;;;;;13.52;100.00;100145.91;4858741;29;20115;-85
2022/05/24 08:07:38;;;;;;;19.80;11.73;;;;;;;13.53;100.00;100148.50;4864398;29;20049;-84
2022/05/24 08:10:08;;;;;;;19.25;11.30;;;;;;;13.55;100.00;100145.81;4831664;29;20298;-85
2022/05/24 08:12:44;;;;;;;18.98;11.95;;;;;;;13.56;100.00;100155.53;4875468;29;20169;-85
2022/05/24 08:15:14;;;;;;;20.05;11.85;;;;;;;13.55;100.00;100156.41;4864500;29;20049;-85
2022/05/24 08:17:42;;;;;;;14.95;10.88;;;;;;;13.56;100.00;100152.88;4861073;29;20059;-85
2022/05/24 08:20:11;;;;;;;16.23;11.82;;;;;;;13.55;100.00;100157.28;4857041;29;20049;-85
2022/05/24 08:22:41;;;;;;;15.10;12.25;;;;;;;13.56;100.00;100156.38;4870971;29;20219;-85
2022/05/24 08:25:11;;;;;;;16.13;12.65;;;;;;;13.55;100.00;100157.28;4875484;29;20052;-85
2022/05/24 08:27:43;;;;;;;15.68;13.02;;;;;;;13.59;100.00;100166.03;4873370;29;20241;-85
2022/05/24 08:30:14;;;;;;;20.15;12.93;;;;;;;13.61;100.00;100173.06;4855332;29;20036;-85
2022/05/24 08:32:44;;;;;;;17.85;13.05;;;;;;;13.59;100.00;100177.53;4848159;29;20053;-84
2022/05/24 08:35:15;;;;;;;23.33;14.00;;;;;;;13.56;100.00;100185.50;4874460;29;20518;-84
2022/05/24 08:37:45;;;;;;;27.15;13.65;;;;;;;13.53;100.00;100182.03;4848291;29;20062;-84
2022/05/24 08:40:16;;;;;;;13.10;9.60;;;;;;;13.46;100.00;100189.25;4870777;29;20521;-85
2022/05/24 08:43:19;;;;;;;9.63;7.63;;;;;;;13.26;100.00;100182.50;4863991;29;20168;-85
2022/05/24 08:49:09;;;;;;;12.75;9.45;;;;;;;13.19;100.00;100186.16;4862909;29;20056;-85
2022/05/24 08:51:52;;;;;;;13.18;11.02;;;;;;;13.20;100.00;100190.56;4869864;29;20049;-86
2022/05/24 08:54:39;;;;;;;11.13;9.18;;;;;;;13.21;100.00;100188.78;4863308;29;20045;-85
2022/05/24 08:57:12;;;;;;;9.07;8.18;;;;;;;13.17;100.00;100195.03;4875572;29;20045;-86
2022/05/24 09:00:01;;;;;;;11.65;6.85;;;;;;;13.12;100.00;100197.78;4860191;29;20042;-87
2022/05/24 09:02:32;;;;;;;9.77;5.95;;;;;;;13.07;100.00;100194.31;4889150;29;20057;-84
2022/05/24 09:05:01;;;;;;;7.07;5.65;;;;;;;13.00;100.00;100196.19;4868694;29;20061;-84
2022/05/24 09:07:39;;;;;;;8.93;6.20;;;;;;;12.94;100.00;100206.00;4890879;29;20049;-85
2022/05/24 09:10:25;;;;;;;8.70;5.85;;;;;;;12.95;100.00;100215.69;4854364;29;20738;-84
2022/05/24 09:13:28;;;;;;;10.43;6.63;;;;;;;13.04;100.00;100208.50;4873444;29;20182;-84
2022/05/24 09:16:06;;;;;;;13.48;8.07;;;;;;;13.21;100.00;100202.00;4857295;29;20072;-86
2022/05/24 09:18:54;;;;;;;13.90;7.95;;;;;;;13.34;100.00;100194.75;4864135;29;20034;-85
2022/05/24 09:21:26;;;;;;;12.70;8.27;;;;;;;13.47;100.00;100201.56;4878145;29;20041;-84
2022/05/24 09:24:20;;;;;;;13.07;9.15;;;;;;;13.56;100.00;100190.81;4865699;29;20056;-85
2022/05/24 09:27:22;;;;;;;18.23;9.32;;;;;;;13.67;100.00;100202.94;4885913;29;20032;-84
2022/05/24 09:30:35;;;;;;;12.57;10.63;;;;;;;13.77;100.00;100210.69;4852642;29;20228;-85
2022/05/24 09:33:32;;;;;;;12.40;9.98;;;;;;;13.87;100.00;100213.16;4878459;29;20053;-85
2022/05/24 09:36:01;;;;;;;13.18;8.07;;;;;;;13.95;100.00;100209.44;4863508;29;20049;-85
2022/05/24 09:38:38;;;;;;;12.25;7.75;;;;;;;14.12;100.00;100211.75;4858425;29;20056;-85
2022/05/24 09:41:16;;;;;;;12.20;7.95;;;;;;;14.22;100.00;100201.81;4861033;29;20383;-85
2022/05/24 09:43:59;;;;;;;11.13;7.50;;;;;;;14.28;100.00;100208.75;4859281;29;20064;-85
2022/05/24 09:46:36;;;;;;;12.45;7.82;;;;;;;14.27;100.00;100207.00;4875749;29;20048;-84
2022/05/24 09:49:26;;;;;;;13.50;9.07;;;;;;;14.22;100.00;100223.88;4864529;29;20041;-84
2022/05/24 09:52:14;;;;;;;12.05;8.48;;;;;;;14.19;100.00;100223.94;4872677;29;20056;-85
2022/05/24 09:54:56;;;;;;;24.13;9.05;;;;;;;14.10;100.00;100239.16;4861852;29;20045;-85
2022/05/24 09:57:32;;;;;;;12.07;7.20;;;;;;;13.87;100.00;100247.56;4862591;29;20530;-85
2022/05/24 10:00:23;;;;;;;13.55;7.30;;;;;;;13.50;100.00;100249.16;4867796;29;20068;-85
2022/05/24 10:03:11;;;;;;;14.95;7.10;;;;;;;13.24;100.00;100253.09;4864511;29;20065;-84
2022/05/24 10:05:39;;;;;;;9.38;6.60;;;;;;;13.09;100.00;100261.31;4854451;29;20037;-84
2022/05/24 10:08:16;;;;;;;9.32;6.05;;;;;;;12.96;100.00;100265.91;4866067;29;20052;-85
2022/05/24 10:10:56;;;;;;;8.02;6.15;;;;;;;12.85;100.00;100267.84;4873306;29;20045;-83
2022/05/24 10:13:48;;;;;;;5.50;3.92;;;;;;;12.77;100.00;100277.69;4855909;29;20168;-86
2022/05/24 10:16:27;;;;;;;4.72;3.20;;;;;;;12.73;100.00;100286.56;4873448;29;20061;-83
2022/05/24 10:19:36;;;;;;;4.03;2.65;;;;;;;12.74;100.00;100286.53;4860136;29;20052;-84
2022/05/24 10:22:12;;;;;;;3.28;2.75;;;;;;;12.81;100.00;100290.81;4860303;29;20061;-83
2022/05/24 10:25:16;;;;;;;3.22;2.90;;;;;;;12.86;100.00;100286.34;4863337;29;20052;-83
2022/05/24 10:28:22;;;;;;;4.28;3.05;;;;;;;12.91;100.00;100296.88;4866318;29;20045;-85
2022/05/24 10:31:16;;;;;;;5.88;3.97;;;;;;;12.97;100.00;100303.81;4893475;29;20041;-84
2022/05/24 10:40:21;;;;;;;5.03;3.90;;;;;;;13.38;100.00;100319.06;4862904;29;20236;-85
2022/05/24 10:43:18;;;;;;;3.78;2.90;;;;;;;13.54;100.00;100311.72;4865774;29;20524;-84
2022/05/24 10:45:51;;;;;;;10.35;4.07;;;;;;;13.64;100.00;100321.25;4872268;29;20040;-80
2022/05/24 10:48:30;;;;;;;3.42;2.72;;;;;;;13.74;100.00;100310.50;4872891;29;20426;-81
2022/05/24 10:51:38;;;;;;;3.30;3.00;;;;;;;14.08;100.00;100312.50;4848351;29;20049;-81
2022/05/24 10:54:28;;;;;;;2.60;2.40;;;;;;;14.23;100.00;100312.19;4850234;29;20539;-81
2022/05/24 10:57:15;;;;;;;4.32;2.50;;;;;;;14.22;100.00;100321.91;4870699;29;20033;-81
2022/05/24 11:00:19;;;;;;;3.88;2.38;;;;;;;14.45;100.00;100319.72;4870001;29;20056;-80
2022/05/24 11:02:50;;;;;;;2.40;2.17;;;;;;;14.58;100.00;100321.22;4874938;29;20037;-81
2022/05/24 11:05:25;;;;;;;2.92;1.90;;;;;;;14.48;100.00;100328.47;4853113;29;20267;-80
2022/05/24 11:08:13;;;;;;;2.40;2.20;;;;;;;14.29;100.00;100330.63;4863636;29;20049;-80
2022/05/24 11:10:46;;;;;;;3.22;1.90;;;;;;;14.20;100.00;100334.31;4867186;29;20041;-80
2022/05/24 11:13:20;;;;;;;4.28;2.13;;;;;;;13.99;100.00;100332.97;4849490;29;20261;-80
2022/05/24 11:15:54;;;;;;;6.30;2.53;;;;;;;13.80;100.00;100348.34;4873514;29;20057;-81
2022/05/24 11:18:40;;;;;;;4.68;2.70;;;;;;;13.64;100.00;100350.38;4868238;29;20588;-81
2022/05/24 11:21:23;;;;;;;4.85;2.88;;;;;;;13.52;100.00;100362.97;4834838;29;23266;-81
2022/05/24 11:24:13;;;;;;;7.95;4.07;;;;;;;13.43;100.00;100356.91;4856568;29;20080;-80
2022/05/24 11:26:50;;;;;;;3.28;2.97;;;;;;;13.35;100.00;100371.16;4870539;29;20056;-80
2022/05/24 11:29:30;;;;;;;5.20;2.88;;;;;;;13.33;100.00;100359.75;4871127;29;20268;-80
2022/05/24 11:31:59;;;;;;;3.47;2.77;;;;;;;13.41;100.00;100371.94;4876977;29;20060;-81
2022/05/24 11:34:31;;;;;;;1.80;1.58;;;;;;;13.52;100.00;100369.13;4899851;29;20052;-81
2022/05/24 11:37:04;;;;;;;4.13;1.50;;;;;;;13.64;100.00;100374.19;4884396;29;20060;-82
2022/05/24 11:39:39;;;;;;;2.38;1.60;;;;;;;13.74;100.00;100380.22;4912928;29;20055;-81
2022/05/24 11:42:29;;;;;;;2.45;2.20;;;;;;;13.84;100.00;100375.66;4885743;29;20052;-80
2022/05/24 11:44:58;;;;;;;2.88;2.25;;;;;;;13.79;100.00;100382.78;4872486;29;20056;-81
2022/05/24 11:47:35;;;;;;;3.63;1.50;;;;;;;13.65;100.00;100402.44;4888139;29;20055;-81
2022/05/24 11:50:22;;;;;;;4.47;1.90;;;;;;;13.68;100.00;100400.63;4904736;29;20048;-81
2022/05/24 11:53:26;;;;;;;2.42;1.65;;;;;;;13.84;100.00;100400.34;4857280;29;20156;-81
2022/05/24 11:55:54;;;;;;;2.15;1.90;;;;;;;14.12;100.00;100409.56;4903943;29;20525;-81
2022/05/24 11:58:23;;;;;;;1.98;1.88;;;;;;;14.14;100.00;100402.44;4908791;29;20489;-81
2022/05/24 12:01:00;;;;;;;2.83;1.90;;;;;;;14.13;100.00;100406.88;4869541;29;20119;-81
2022/05/24 12:10:05;;;;;;;2.47;1.90;;;;;;;13.84;100.00;100434.78;4867362;29;20037;-80
2022/05/24 12:12:37;;;;;;;4.28;2.35;;;;;;;14.13;100.00;100441.34;4858771;29;20056;-79
2022/05/24 12:15:18;;;;;;;2.65;1.83;;;;;;;14.42;100.00;100437.25;4851667;29;20499;-83
2022/05/24 12:18:11;;;;;;;2.33;1.90;;;;;;;14.69;100.00;100438.53;4865682;29;20064;-78
2022/05/24 12:20:39;;;;;;;2.20;2.00;;;;;;;14.80;100.00;100439.19;4863674;29;20057;-78
2022/05/24 12:23:13;;;;;;;2.33;2.13;;;;;;;14.84;100.00;100455.03;4847913;29;20657;-78
2022/05/24 12:25:59;;;;;;;2.03;1.83;;;;;;;14.88;100.00;100447.00;4854630;29;20041;-78
2022/05/24 12:28:37;;;;;;;1.73;1.63;;;;;;;14.87;100.00;100444.38;4852262;29;20501;-78
2022/05/24 12:31:18;;;;;;;4.80;1.55;;;;;;;14.64;100.00;100452.81;4855366;29;20045;-78
2022/05/24 12:33:54;;;;;;;1.45;1.35;;;;;;;14.40;100.00;100458.53;4874145;29;20052;-78